Time,TemperatureF,DewpointF,PressureIn,WindDirection,WindDirectionDegrees,WindSpeedMPH,WindSpeedGustMPH,Humidity,HourlyPrecipIn,Conditions,Clouds,dailyrainin,SoftwareType,DateUTC
2013-02-24 00:00:00,31.6,29.7,30.00,ESE,117,0.0,6.0,92,0.00,,,0.00,meteohub,2013-02-24 05:00:00,
2013-02-24 00:05:00,31.6,29.7,30.00,ENE,60,2.0,6.0,92,0.00,,,0.00,meteohub,2013-02-24 05:05:00,
2013-02-24 00:10:00,31.6,29.7,29.99,ENE,64,0.0,7.0,92,0.00,,,0.00,meteohub,2013-02-24 05:10:00,
2013-02-24 00:15:00,31.6,29.3,30.00,East,92,2.0,7.0,91,0.00,,,0.00,meteohub,2013-02-24 05:15:00,
2013-02-24 00:20:00,31.5,29.1,30.00,SSE,167,4.0,5.0,91,0.00,,,0.00,meteohub,2013-02-24 05:20:00,
2013-02-24 00:25:00,31.5,29.5,30.00,SE,134,0.0,5.0,92,0.00,,,0.00,meteohub,2013-02-24 05:25:00,
2013-02-24 00:30:00,31.5,29.5,30.00,ESE,123,0.0,5.0,92,0.00,,,0.00,meteohub,2013-02-24 05:30:00,
2013-02-24 00:35:00,31.3,29.3,29.99,ESE,115,5.0,8.0,92,0.00,,,0.00,meteohub,2013-02-24 05:35:00,
2013-02-24 00:40:00,30.9,28.9,29.99,South,170,3.0,8.0,92,0.00,,,0.00,meteohub,2013-02-24 05:40:00,
2013-02-24 00:45:00,31.1,29.1,29.99,ESE,121,5.0,8.0,92,0.00,,,0.00,meteohub,2013-02-24 05:45:00,
2013-02-24 00:51:00,30.9,28.9,29.99,ESE,123,2.0,8.0,92,0.00,,,0.00,meteohub,2013-02-24 05:51:00,
2013-02-24 00:56:00,30.9,28.9,29.99,East,94,8.0,8.0,92,0.00,,,0.00,meteohub,2013-02-24 05:56:00,
2013-02-24 01:01:00,30.7,28.8,29.99,ESE,114,0.0,8.0,92,0.00,,,0.00,meteohub,2013-02-24 06:01:00,
2013-02-24 01:06:00,30.7,28.8,29.98,ESE,121,2.0,8.0,92,0.00,,,0.00,meteohub,2013-02-24 06:06:00,
2013-02-24 01:11:00,30.9,29.1,29.98,SE,124,2.0,8.0,93,0.00,,,0.00,meteohub,2013-02-24 06:11:00,
2013-02-24 01:16:00,30.9,28.9,29.98,ESE,105,1.0,6.0,92,0.00,,,0.00,meteohub,2013-02-24 06:16:00,
2013-02-24 01:21:00,30.9,28.9,29.98,East,101,1.0,6.0,92,0.00,,,0.00,meteohub,2013-02-24 06:21:00,
2013-02-24 01:26:00,30.9,28.9,29.98,East,101,0.0,5.0,92,0.00,,,0.00,meteohub,2013-02-24 06:26:00,
2013-02-24 01:31:00,30.9,29.1,29.98,ESE,109,0.0,5.0,93,0.00,,,0.00,meteohub,2013-02-24 06:31:00,
2013-02-24 01:36:00,30.9,28.9,29.98,NE,55,0.0,3.0,92,0.00,,,0.00,meteohub,2013-02-24 06:36:00,
2013-02-24 01:41:00,30.9,29.1,29.97,NE,55,0.0,3.0,93,0.00,,,0.00,meteohub,2013-02-24 06:41:00,
2013-02-24 01:46:00,30.7,28.9,29.97,NE,55,0.0,3.0,93,0.00,,,0.00,meteohub,2013-02-24 06:46:00,
2013-02-24 01:51:00,30.7,28.9,29.97,SSE,159,1.0,2.0,93,0.00,,,0.00,meteohub,2013-02-24 06:51:00,
2013-02-24 01:56:00,30.7,28.8,29.96,NNE,15,0.0,2.0,92,0.00,,,0.00,meteohub,2013-02-24 06:56:00,
2013-02-24 02:01:00,30.9,28.9,29.96,SE,136,1.0,3.0,92,0.00,,,0.00,meteohub,2013-02-24 07:01:00,
2013-02-24 02:06:00,31.1,28.8,29.95,SE,126,0.0,4.0,91,0.00,,,0.00,meteohub,2013-02-24 07:06:00,
2013-02-24 02:11:00,31.3,28.9,29.95,ESE,116,1.0,4.0,91,0.00,,,0.00,meteohub,2013-02-24 07:11:00,
2013-02-24 02:16:00,31.3,28.8,29.96,ESE,116,0.0,4.0,90,0.00,,,0.00,meteohub,2013-02-24 07:16:00,
2013-02-24 02:21:00,31.3,28.9,29.95,ESE,116,1.0,4.0,91,0.00,,,0.00,meteohub,2013-02-24 07:21:00,
2013-02-24 02:26:00,31.1,29.1,29.94,ESE,116,0.0,4.0,92,0.00,,,0.00,meteohub,2013-02-24 07:26:00,
2013-02-24 02:31:00,30.9,28.9,29.94,ESE,116,0.0,2.0,92,0.00,,,0.00,meteohub,2013-02-24 07:31:00,
2013-02-24 02:36:00,30.9,28.9,29.94,ESE,116,0.0,2.0,92,0.00,,,0.00,meteohub,2013-02-24 07:36:00,
2013-02-24 02:41:00,30.9,28.6,29.94,ESE,116,0.0,1.0,91,0.00,,,0.00,meteohub,2013-02-24 07:41:00,
2013-02-24 02:46:00,30.9,28.6,29.94,ESE,116,0.0,2.0,91,0.00,,,0.00,meteohub,2013-02-24 07:46:00,
2013-02-24 02:51:00,30.9,28.6,29.94,ESE,109,2.0,3.0,91,0.00,,,0.00,meteohub,2013-02-24 07:51:00,
2013-02-24 02:56:00,31.1,28.8,29.94,ESE,109,1.0,3.0,91,0.00,,,0.00,meteohub,2013-02-24 07:56:00,
2013-02-24 03:02:00,31.1,28.8,29.94,ESE,122,2.0,3.0,91,0.00,,,0.00,meteohub,2013-02-24 08:02:00,
2013-02-24 03:07:00,31.1,28.6,29.94,East,101,1.0,4.0,90,0.00,,,0.00,meteohub,2013-02-24 08:07:00,
2013-02-24 03:12:00,31.1,28.6,29.94,SSE,161,0.0,4.0,90,0.00,,,0.00,meteohub,2013-02-24 08:12:00,
2013-02-24 03:17:00,31.1,28.8,29.94,SE,135,0.0,4.0,91,0.00,,,0.00,meteohub,2013-02-24 08:17:00,
2013-02-24 03:22:00,31.1,28.8,29.94,SE,134,2.0,4.0,91,0.00,,,0.00,meteohub,2013-02-24 08:22:00,
2013-02-24 03:27:00,31.3,28.9,29.94,SE,134,0.0,4.0,91,0.00,,,0.00,meteohub,2013-02-24 08:27:00,
2013-02-24 03:32:00,31.3,29.3,29.94,SE,134,2.0,4.0,92,0.00,,,0.00,meteohub,2013-02-24 08:32:00,
2013-02-24 03:37:00,31.3,29.3,29.93,SE,134,0.0,3.0,92,0.00,,,0.00,meteohub,2013-02-24 08:37:00,
2013-02-24 03:42:00,31.3,29.3,29.93,SE,134,0.0,2.0,92,0.00,,,0.00,meteohub,2013-02-24 08:42:00,
2013-02-24 03:47:00,31.1,29.1,29.93,SE,134,0.0,2.0,92,0.00,,,0.00,meteohub,2013-02-24 08:47:00,
2013-02-24 03:52:00,31.1,29.1,29.93,SE,134,2.0,2.0,92,0.00,,,0.00,meteohub,2013-02-24 08:52:00,
2013-02-24 03:57:00,30.9,28.9,29.93,SE,134,0.0,2.0,92,0.00,,,0.00,meteohub,2013-02-24 08:57:00,
2013-02-24 04:02:00,30.9,29.1,29.93,SE,134,0.0,2.0,93,0.00,,,0.00,meteohub,2013-02-24 09:02:00,
2013-02-24 04:07:00,30.9,29.1,29.93,SE,128,0.0,3.0,93,0.00,,,0.00,meteohub,2013-02-24 09:07:00,
2013-02-24 04:12:00,30.9,29.1,29.93,East,83,0.0,3.0,93,0.00,,,0.00,meteohub,2013-02-24 09:12:00,
2013-02-24 04:17:00,31.1,29.3,29.93,East,83,1.0,3.0,93,0.00,,,0.00,meteohub,2013-02-24 09:17:00,
2013-02-24 04:22:00,31.3,29.5,29.93,East,82,0.0,3.0,93,0.00,,,0.00,meteohub,2013-02-24 09:22:00,
2013-02-24 04:27:00,31.3,29.8,29.93,East,82,0.0,3.0,94,0.00,,,0.00,meteohub,2013-02-24 09:27:00,
2013-02-24 04:32:00,31.3,29.5,29.94,East,82,1.0,3.0,93,0.00,,,0.00,meteohub,2013-02-24 09:32:00,
2013-02-24 04:37:00,31.3,29.8,29.94,East,82,2.0,3.0,94,0.00,,,0.00,meteohub,2013-02-24 09:37:00,
2013-02-24 04:42:00,31.3,29.8,29.94,East,82,2.0,2.0,94,0.00,,,0.00,meteohub,2013-02-24 09:42:00,
2013-02-24 04:47:00,31.3,29.8,29.94,East,82,0.0,3.0,94,0.00,,,0.00,meteohub,2013-02-24 09:47:00,
2013-02-24 04:52:00,31.3,29.8,29.94,East,82,0.0,3.0,94,0.00,,,0.00,meteohub,2013-02-24 09:52:00,
2013-02-24 04:57:00,31.1,29.7,29.94,East,82,0.0,3.0,94,0.00,,,0.00,meteohub,2013-02-24 09:57:00,
2013-02-24 05:02:00,31.1,29.7,29.94,East,82,0.0,2.0,94,0.00,,,0.00,meteohub,2013-02-24 10:02:00,
2013-02-24 05:07:00,31.1,29.7,29.94,East,82,0.0,2.0,94,0.00,,,0.00,meteohub,2013-02-24 10:07:00,
2013-02-24 05:12:00,31.1,29.7,29.94,East,82,0.0,2.0,94,0.00,,,0.00,meteohub,2013-02-24 10:12:00,
2013-02-24 05:17:00,31.1,29.7,29.94,East,82,0.0,2.0,94,0.00,,,0.00,meteohub,2013-02-24 10:17:00,
2013-02-24 05:22:00,30.9,29.5,29.94,East,82,0.0,2.0,94,0.00,,,0.00,meteohub,2013-02-24 10:22:00,
2013-02-24 05:27:00,31.1,29.7,29.94,East,82,0.0,2.0,94,0.00,,,0.00,meteohub,2013-02-24 10:27:00,
2013-02-24 05:32:00,31.1,29.7,29.94,East,82,0.0,2.0,94,0.00,,,0.00,meteohub,2013-02-24 10:32:00,
2013-02-24 05:37:00,30.9,29.5,29.94,East,82,1.0,1.0,94,0.00,,,0.00,meteohub,2013-02-24 10:37:00,
2013-02-24 05:42:00,30.9,29.7,29.94,East,86,0.0,2.0,95,0.00,,,0.00,meteohub,2013-02-24 10:42:00,
2013-02-24 05:47:00,30.9,29.5,29.94,East,86,0.0,2.0,94,0.00,,,0.00,meteohub,2013-02-24 10:47:00,
2013-02-24 05:52:00,30.9,29.7,29.94,East,86,1.0,3.0,95,0.00,,,0.00,meteohub,2013-02-24 10:52:00,
2013-02-24 05:57:00,30.9,29.7,29.93,East,86,0.0,3.0,95,0.00,,,0.00,meteohub,2013-02-24 10:57:00,
2013-02-24 06:02:00,30.9,29.7,29.94,East,86,1.0,3.0,95,0.00,,,0.00,meteohub,2013-02-24 11:02:00,
2013-02-24 06:07:00,30.9,29.7,29.94,East,96,1.0,5.0,95,0.00,,,0.00,meteohub,2013-02-24 11:07:00,
2013-02-24 06:12:00,30.9,29.7,29.94,ESE,103,1.0,5.0,95,0.00,,,0.00,meteohub,2013-02-24 11:12:00,
2013-02-24 06:17:00,30.9,29.7,29.94,SE,138,2.0,5.0,95,0.00,,,0.00,meteohub,2013-02-24 11:17:00,
2013-02-24 06:22:00,31.1,29.8,29.94,SE,138,1.0,5.0,95,0.00,,,0.00,meteohub,2013-02-24 11:22:00,
2013-02-24 06:27:00,31.1,29.8,29.94,SE,135,1.0,5.0,95,0.00,,,0.00,meteohub,2013-02-24 11:27:00,
2013-02-24 06:32:00,30.9,29.7,29.93,SSE,154,1.0,4.0,95,0.00,,,0.00,meteohub,2013-02-24 11:32:00,
2013-02-24 06:37:00,30.7,29.5,29.93,SE,144,2.0,5.0,95,0.00,,,0.00,meteohub,2013-02-24 11:37:00,
2013-02-24 06:42:00,30.7,29.5,29.93,SE,144,1.0,5.0,95,0.00,,,0.00,meteohub,2013-02-24 11:42:00,
2013-02-24 06:47:00,30.7,29.5,29.93,SE,144,1.0,5.0,95,0.00,,,0.00,meteohub,2013-02-24 11:47:00,
2013-02-24 06:52:00,30.6,29.3,29.93,SE,144,0.0,3.0,95,0.00,,,0.00,meteohub,2013-02-24 11:52:00,
2013-02-24 06:57:00,30.6,29.3,29.93,SE,130,0.0,3.0,95,0.00,,,0.00,meteohub,2013-02-24 11:57:00,
2013-02-24 07:02:00,30.6,29.5,29.92,SE,130,1.0,3.0,96,0.00,,,0.00,meteohub,2013-02-24 12:02:00,
2013-02-24 07:07:00,30.6,29.5,29.92,SE,130,2.0,3.0,96,0.00,,,0.00,meteohub,2013-02-24 12:07:00,
2013-02-24 07:12:00,30.6,29.5,29.92,SE,130,1.0,3.0,96,0.00,,,0.00,meteohub,2013-02-24 12:12:00,
2013-02-24 07:17:00,30.6,29.5,29.92,SE,130,1.0,3.0,96,0.00,,,0.00,meteohub,2013-02-24 12:17:00,
2013-02-24 07:22:00,30.6,29.5,29.93,SE,130,0.0,3.0,96,0.00,,,0.00,meteohub,2013-02-24 12:22:00,
2013-02-24 07:27:00,30.6,29.5,29.93,SE,130,0.0,3.0,96,0.00,,,0.00,meteohub,2013-02-24 12:27:00,
2013-02-24 07:32:00,30.6,29.5,29.93,SE,130,0.0,3.0,96,0.00,,,0.00,meteohub,2013-02-24 12:32:00,
2013-02-24 07:37:00,30.7,29.7,29.93,SE,130,0.0,2.0,96,0.00,,,0.00,meteohub,2013-02-24 12:37:00,
2013-02-24 07:42:00,30.7,29.7,29.93,SE,130,0.0,2.0,96,0.00,,,0.00,meteohub,2013-02-24 12:42:00,
2013-02-24 07:47:00,30.7,29.7,29.93,SE,130,0.0,1.0,96,0.00,,,0.00,meteohub,2013-02-24 12:47:00,
2013-02-24 07:52:00,30.9,29.8,29.93,SE,130,1.0,1.0,96,0.00,,,0.00,meteohub,2013-02-24 12:52:00,
2013-02-24 07:57:00,30.9,29.8,29.93,SE,130,0.0,2.0,96,0.00,,,0.00,meteohub,2013-02-24 12:57:00,
2013-02-24 08:02:00,30.9,29.8,29.93,SE,130,0.0,2.0,96,0.00,,,0.00,meteohub,2013-02-24 13:02:00,
2013-02-24 08:07:00,31.1,30.0,29.93,SE,130,0.0,2.0,96,0.00,,,0.00,meteohub,2013-02-24 13:07:00,
2013-02-24 08:12:00,31.3,30.2,29.93,SE,130,0.0,0.0,96,0.00,,,0.00,meteohub,2013-02-24 13:12:00,
2013-02-24 08:17:00,31.5,30.4,29.93,ESE,107,1.0,3.0,96,0.00,,,0.00,meteohub,2013-02-24 13:17:00,
2013-02-24 08:22:00,31.6,30.6,29.93,ESE,107,0.0,3.0,96,0.00,,,0.00,meteohub,2013-02-24 13:22:00,
2013-02-24 08:27:00,31.6,30.6,29.92,ESE,107,0.0,3.0,96,0.00,,,0.00,meteohub,2013-02-24 13:27:00,
2013-02-24 08:32:00,31.8,30.6,29.92,ESE,107,0.0,3.0,95,0.00,,,0.00,meteohub,2013-02-24 13:32:00,
2013-02-24 08:37:00,32.0,30.7,29.92,ESE,107,0.0,3.0,95,0.00,,,0.00,meteohub,2013-02-24 13:37:00,
2013-02-24 08:42:00,32.2,30.9,29.92,ESE,107,0.0,2.0,95,0.00,,,0.00,meteohub,2013-02-24 13:42:00,
2013-02-24 08:47:00,32.4,31.1,29.92,ESE,107,0.0,2.0,95,0.00,,,0.00,meteohub,2013-02-24 13:47:00,
2013-02-24 08:52:00,32.5,30.9,29.92,ESE,107,0.0,2.0,94,0.00,,,0.00,meteohub,2013-02-24 13:52:00,
2013-02-24 08:57:00,32.7,31.1,29.92,ESE,107,0.0,2.0,94,0.00,,,0.00,meteohub,2013-02-24 13:57:00,
2013-02-24 09:02:00,32.7,30.9,29.91,ESE,107,0.0,1.0,93,0.00,,,0.00,meteohub,2013-02-24 14:02:00,
2013-02-24 09:07:00,32.9,31.1,29.92,ESE,107,0.0,1.0,93,0.00,,,0.00,meteohub,2013-02-24 14:07:00,
2013-02-24 09:12:00,33.1,31.3,29.91,ESE,107,0.0,1.0,93,0.00,,,0.00,meteohub,2013-02-24 14:12:00,
2013-02-24 09:17:00,33.3,31.5,29.91,SSE,150,3.0,3.0,93,0.00,,,0.00,meteohub,2013-02-24 14:17:00,
2013-02-24 09:22:00,33.1,31.3,29.91,SSE,150,0.0,3.0,93,0.00,,,0.00,meteohub,2013-02-24 14:22:00,
2013-02-24 09:27:00,33.1,31.5,29.91,SSE,150,1.0,3.0,94,0.00,,,0.00,meteohub,2013-02-24 14:27:00,
2013-02-24 09:32:00,32.9,31.3,29.91,SSE,153,1.0,3.0,94,0.00,,,0.00,meteohub,2013-02-24 14:32:00,
2013-02-24 09:37:00,32.9,31.3,29.91,SSE,158,0.0,3.0,94,0.00,,,0.00,meteohub,2013-02-24 14:37:00,
2013-02-24 09:42:00,32.7,31.1,29.90,SSE,161,2.0,3.0,94,0.00,,,0.00,meteohub,2013-02-24 14:42:00,
2013-02-24 09:47:00,32.5,31.3,29.90,SSE,161,1.0,4.0,95,0.00,,,0.00,meteohub,2013-02-24 14:47:00,
2013-02-24 09:52:00,32.5,31.3,29.90,SSE,161,0.0,4.0,95,0.00,,,0.00,meteohub,2013-02-24 14:52:00,
2013-02-24 09:57:00,32.5,31.3,29.90,SSE,161,0.0,4.0,95,0.01,,,0.01,meteohub,2013-02-24 14:57:00,
2013-02-24 10:02:00,32.9,31.6,29.90,SSE,161,0.0,4.0,95,0.01,,,0.01,meteohub,2013-02-24 15:02:00,
2013-02-24 10:08:00,33.3,31.6,29.90,SSE,161,0.0,1.0,94,0.01,,,0.01,meteohub,2013-02-24 15:08:00,
2013-02-24 10:13:00,33.6,31.8,29.90,SSE,161,0.0,2.0,93,0.01,,,0.01,meteohub,2013-02-24 15:13:00,
2013-02-24 10:18:00,34.0,31.8,29.90,SSE,161,0.0,2.0,92,0.01,,,0.01,meteohub,2013-02-24 15:18:00,
2013-02-24 10:23:00,34.2,31.5,29.90,SSE,161,0.0,2.0,90,0.01,,,0.01,meteohub,2013-02-24 15:23:00,
2013-02-24 10:28:00,34.2,31.5,29.90,SSE,161,0.0,2.0,90,0.01,,,0.01,meteohub,2013-02-24 15:28:00,
2013-02-24 10:33:00,34.0,31.3,29.90,SSE,161,0.0,4.0,90,0.02,,,0.02,meteohub,2013-02-24 15:33:00,
2013-02-24 10:38:00,34.0,31.3,29.90,SSE,161,1.0,4.0,90,0.02,,,0.02,meteohub,2013-02-24 15:38:00,
2013-02-24 10:43:00,34.0,31.3,29.90,SSE,161,0.0,4.0,90,0.02,,,0.02,meteohub,2013-02-24 15:43:00,
2013-02-24 10:48:00,34.0,31.1,29.90,SSE,161,0.0,2.0,89,0.02,,,0.02,meteohub,2013-02-24 15:48:00,
2013-02-24 10:53:00,34.0,31.1,29.89,SSE,161,0.0,3.0,89,0.02,,,0.03,meteohub,2013-02-24 15:53:00,
2013-02-24 10:58:00,34.2,31.3,29.89,SSE,161,1.0,3.0,89,0.02,,,0.03,meteohub,2013-02-24 15:58:00,
2013-02-24 11:03:00,34.0,31.1,29.89,SSE,156,0.0,2.0,89,0.02,,,0.03,meteohub,2013-02-24 16:03:00,
2013-02-24 11:08:00,34.0,31.1,29.89,SSE,156,0.0,5.0,89,0.03,,,0.04,meteohub,2013-02-24 16:08:00,
2013-02-24 11:13:00,34.0,31.1,29.89,SSE,156,0.0,5.0,89,0.03,,,0.04,meteohub,2013-02-24 16:13:00,
2013-02-24 11:18:00,33.8,30.9,29.89,SSE,156,0.0,2.0,89,0.03,,,0.04,meteohub,2013-02-24 16:18:00,
2013-02-24 11:23:00,34.0,31.1,29.89,SSE,156,0.0,3.0,89,0.03,,,0.04,meteohub,2013-02-24 16:23:00,
2013-02-24 11:28:00,34.3,31.5,29.89,SSE,156,1.0,3.0,89,0.02,,,0.04,meteohub,2013-02-24 16:28:00,
2013-02-24 11:33:00,34.5,31.3,29.89,SSE,156,0.0,3.0,88,0.03,,,0.05,meteohub,2013-02-24 16:33:00,
2013-02-24 11:38:00,34.5,31.3,29.89,SSE,156,0.0,2.0,88,0.03,,,0.05,meteohub,2013-02-24 16:38:00,
2013-02-24 11:43:00,34.5,31.1,29.89,SSE,156,0.0,2.0,87,0.03,,,0.05,meteohub,2013-02-24 16:43:00,
2013-02-24 11:48:00,34.5,31.3,29.88,SSE,156,0.0,3.0,88,0.03,,,0.05,meteohub,2013-02-24 16:48:00,
2013-02-24 11:53:00,34.9,31.5,29.88,ESE,123,0.0,3.0,87,0.02,,,0.05,meteohub,2013-02-24 16:53:00,
2013-02-24 11:58:00,35.1,31.6,29.88,ESE,123,0.0,3.0,87,0.03,,,0.06,meteohub,2013-02-24 16:58:00,
2013-02-24 12:03:00,35.2,31.5,29.88,ESE,123,1.0,3.0,86,0.03,,,0.06,meteohub,2013-02-24 17:03:00,
2013-02-24 12:08:00,35.2,31.5,29.88,ESE,123,0.0,3.0,86,0.02,,,0.06,meteohub,2013-02-24 17:08:00,
2013-02-24 12:13:00,35.2,31.1,29.88,ESE,123,0.0,2.0,85,0.02,,,0.06,meteohub,2013-02-24 17:13:00,
2013-02-24 12:18:00,35.2,31.1,29.88,ESE,123,0.0,2.0,85,0.03,,,0.07,meteohub,2013-02-24 17:18:00,
2013-02-24 12:23:00,35.1,30.9,29.88,ESE,123,0.0,2.0,85,0.03,,,0.07,meteohub,2013-02-24 17:23:00,
2013-02-24 12:28:00,34.9,30.9,29.88,ESE,123,0.0,2.0,85,0.03,,,0.07,meteohub,2013-02-24 17:28:00,
2013-02-24 12:33:00,34.7,30.9,29.88,ESE,123,0.0,2.0,86,0.02,,,0.07,meteohub,2013-02-24 17:33:00,
2013-02-24 12:38:00,34.7,30.9,29.87,ESE,123,0.0,1.0,86,0.03,,,0.08,meteohub,2013-02-24 17:38:00,
2013-02-24 12:43:00,34.5,31.1,29.87,ESE,123,0.0,1.0,87,0.03,,,0.08,meteohub,2013-02-24 17:43:00,
2013-02-24 12:48:00,34.7,31.3,29.87,ESE,123,0.0,1.0,87,0.03,,,0.08,meteohub,2013-02-24 17:48:00,
2013-02-24 12:53:00,34.5,31.3,29.87,ESE,123,0.0,1.0,88,0.02,,,0.08,meteohub,2013-02-24 17:53:00,
2013-02-24 12:58:00,34.5,31.3,29.87,ESE,123,0.0,1.0,88,0.02,,,0.08,meteohub,2013-02-24 17:58:00,
2013-02-24 13:04:00,34.5,31.3,29.87,ESE,123,0.0,1.0,88,0.02,,,0.08,meteohub,2013-02-24 18:04:00,
2013-02-24 13:09:00,34.7,31.8,29.87,ESE,123,0.0,1.0,89,0.03,,,0.09,meteohub,2013-02-24 18:09:00,
2013-02-24 13:14:00,34.5,31.8,29.87,SW,215,1.0,1.0,90,0.03,,,0.09,meteohub,2013-02-24 18:14:00,
2013-02-24 13:19:00,34.3,32.0,29.87,SW,223,2.0,3.0,91,0.02,,,0.09,meteohub,2013-02-24 18:19:00,
2013-02-24 13:24:00,34.3,32.0,29.87,SW,235,2.0,3.0,91,0.02,,,0.09,meteohub,2013-02-24 18:24:00,
2013-02-24 13:29:00,34.2,31.8,29.87,WNW,300,1.0,3.0,91,0.02,,,0.09,meteohub,2013-02-24 18:29:00,
2013-02-24 13:34:00,34.2,32.0,29.87,WNW,300,0.0,3.0,92,0.01,,,0.09,meteohub,2013-02-24 18:34:00,
2013-02-24 13:39:00,34.2,32.0,29.87,WNW,300,0.0,5.0,92,0.01,,,0.09,meteohub,2013-02-24 18:39:00,
2013-02-24 13:44:00,34.2,32.4,29.87,WNW,300,0.0,5.0,93,0.02,,,0.10,meteohub,2013-02-24 18:44:00,
2013-02-24 13:49:00,34.2,32.4,29.87,WNW,300,0.0,5.0,93,0.02,,,0.10,meteohub,2013-02-24 18:49:00,
2013-02-24 13:54:00,34.2,32.4,29.87,WNW,300,0.0,4.0,93,0.02,,,0.10,meteohub,2013-02-24 18:54:00,
2013-02-24 13:59:00,34.2,32.4,29.86,WNW,300,0.0,4.0,93,0.02,,,0.10,meteohub,2013-02-24 18:59:00,
2013-02-24 14:04:00,34.2,32.5,29.86,WNW,300,0.0,4.0,94,0.02,,,0.10,meteohub,2013-02-24 19:04:00,
2013-02-24 14:09:00,34.2,32.4,29.86,WNW,300,0.0,2.0,93,0.01,,,0.10,meteohub,2013-02-24 19:09:00,
2013-02-24 14:14:00,34.0,32.2,29.86,WNW,298,1.0,2.0,93,0.01,,,0.10,meteohub,2013-02-24 19:14:00,
2013-02-24 14:19:00,33.8,32.2,29.87,WNW,301,1.0,2.0,94,0.02,,,0.11,meteohub,2013-02-24 19:19:00,
2013-02-24 14:24:00,33.4,31.8,29.87,WNW,295,0.0,2.0,94,0.02,,,0.11,meteohub,2013-02-24 19:24:00,
2013-02-24 14:29:00,33.3,31.6,29.87,NW,306,1.0,4.0,94,0.02,,,0.11,meteohub,2013-02-24 19:29:00,
2013-02-24 14:34:00,33.3,31.6,29.87,NW,306,0.0,4.0,94,0.02,,,0.11,meteohub,2013-02-24 19:34:00,
2013-02-24 14:39:00,33.3,31.6,29.87,NW,312,0.0,4.0,94,0.01,,,0.11,meteohub,2013-02-24 19:39:00,
2013-02-24 14:44:00,33.1,31.8,29.87,NW,318,1.0,3.0,95,0.01,,,0.11,meteohub,2013-02-24 19:44:00,
2013-02-24 14:49:00,33.1,31.8,29.87,North,0,0.0,3.0,95,0.01,,,0.11,meteohub,2013-02-24 19:49:00,
2013-02-24 14:54:00,33.1,31.8,29.87,NNW,341,0.0,4.0,95,0.01,,,0.11,meteohub,2013-02-24 19:54:00,
2013-02-24 14:59:00,33.1,31.8,29.87,NNW,341,0.0,4.0,95,0.02,,,0.12,meteohub,2013-02-24 19:59:00,
2013-02-24 15:04:00,33.1,31.8,29.87,NW,310,3.0,4.0,95,0.02,,,0.12,meteohub,2013-02-24 20:04:00,
2013-02-24 15:09:00,33.1,31.8,29.87,NW,318,0.0,3.0,95,0.02,,,0.12,meteohub,2013-02-24 20:09:00,
2013-02-24 15:14:00,33.1,31.8,29.87,NW,318,0.0,3.0,95,0.01,,,0.12,meteohub,2013-02-24 20:14:00,
2013-02-24 15:19:00,33.1,31.8,29.87,NW,318,3.0,3.0,95,0.01,,,0.12,meteohub,2013-02-24 20:19:00,
2013-02-24 15:24:00,33.1,31.8,29.87,NW,318,0.0,3.0,95,0.01,,,0.12,meteohub,2013-02-24 20:24:00,
2013-02-24 15:29:00,33.1,31.8,29.87,NW,318,0.0,3.0,95,0.01,,,0.12,meteohub,2013-02-24 20:29:00,
2013-02-24 15:34:00,32.7,31.5,29.87,NW,318,1.0,3.0,95,0.01,,,0.12,meteohub,2013-02-24 20:34:00,
2013-02-24 15:40:00,32.7,31.5,29.87,WNW,300,0.0,3.0,95,0.01,,,0.12,meteohub,2013-02-24 20:40:00,
2013-02-24 15:45:00,32.5,31.5,29.88,WNW,300,0.0,3.0,96,0.01,,,0.12,meteohub,2013-02-24 20:45:00,
2013-02-24 15:50:00,32.5,31.5,29.88,NW,307,1.0,3.0,96,0.01,,,0.12,meteohub,2013-02-24 20:50:00,
2013-02-24 15:55:00,32.5,31.5,29.88,NW,311,1.0,3.0,96,0.00,,,0.13,meteohub,2013-02-24 20:55:00,
2013-02-24 16:00:00,32.5,31.5,29.88,NW,323,0.0,6.0,96,0.01,,,0.13,meteohub,2013-02-24 21:00:00,
2013-02-24 16:05:00,32.5,31.5,29.88,NW,323,1.0,6.0,96,0.01,,,0.13,meteohub,2013-02-24 21:05:00,
2013-02-24 16:10:00,32.4,31.3,29.88,NW,323,0.0,3.0,96,0.01,,,0.13,meteohub,2013-02-24 21:10:00,
2013-02-24 16:15:00,32.4,31.3,29.88,NW,323,0.0,3.0,96,0.01,,,0.13,meteohub,2013-02-24 21:15:00,
2013-02-24 16:20:00,32.5,31.5,29.88,NW,323,0.0,3.0,96,0.01,,,0.13,meteohub,2013-02-24 21:20:00,
2013-02-24 16:25:00,32.4,31.3,29.88,NW,319,0.0,3.0,96,0.01,,,0.13,meteohub,2013-02-24 21:25:00,
2013-02-24 16:30:00,32.4,31.3,29.88,NW,309,1.0,3.0,96,0.01,,,0.13,meteohub,2013-02-24 21:30:00,
2013-02-24 16:35:00,32.2,31.1,29.88,North,5,1.0,3.0,96,0.01,,,0.13,meteohub,2013-02-24 21:35:00,
2013-02-24 16:40:00,31.8,30.7,29.89,NNW,337,0.0,5.0,96,0.01,,,0.13,meteohub,2013-02-24 21:40:00,
2013-02-24 16:45:00,31.8,30.7,29.89,NNW,337,0.0,5.0,96,0.01,,,0.13,meteohub,2013-02-24 21:45:00,
2013-02-24 16:50:00,31.6,30.6,29.89,NNW,337,0.0,5.0,96,0.01,,,0.13,meteohub,2013-02-24 21:50:00,
2013-02-24 16:55:00,31.6,30.6,29.89,NNW,329,0.0,2.0,96,0.00,,,0.13,meteohub,2013-02-24 21:55:00,
2013-02-24 17:00:00,31.5,30.4,29.90,NNW,329,0.0,3.0,96,0.00,,,0.13,meteohub,2013-02-24 22:00:00,
2013-02-24 17:05:00,31.5,30.4,29.90,NNW,329,1.0,3.0,96,0.00,,,0.13,meteohub,2013-02-24 22:05:00,
2013-02-24 17:10:00,31.5,30.4,29.90,ESE,113,1.0,4.0,96,0.00,,,0.13,meteohub,2013-02-24 22:10:00,
2013-02-24 17:15:00,31.3,30.2,29.91,NW,313,0.0,4.0,96,0.00,,,0.13,meteohub,2013-02-24 22:15:00,
2013-02-24 17:20:00,31.3,30.0,29.91,North,5,0.0,3.0,95,0.00,,,0.13,meteohub,2013-02-24 22:20:00,
2013-02-24 17:25:00,30.9,29.7,29.91,SE,133,2.0,5.0,95,0.00,,,0.13,meteohub,2013-02-24 22:25:00,
2013-02-24 17:30:00,30.7,29.5,29.91,East,91,0.0,5.0,95,0.00,,,0.13,meteohub,2013-02-24 22:30:00,
2013-02-24 17:35:00,30.6,29.3,29.91,NE,53,0.0,5.0,95,0.00,,,0.13,meteohub,2013-02-24 22:35:00,
2013-02-24 17:40:00,30.4,29.1,29.92,East,84,0.0,6.0,95,0.00,,,0.13,meteohub,2013-02-24 22:40:00,
2013-02-24 17:45:00,30.4,29.1,29.92,SSE,167,2.0,6.0,95,0.00,,,0.13,meteohub,2013-02-24 22:45:00,
2013-02-24 17:50:00,30.2,28.9,29.92,ENE,62,0.0,4.0,95,0.00,,,0.13,meteohub,2013-02-24 22:50:00,
2013-02-24 17:55:00,30.0,28.8,29.93,NW,306,1.0,4.0,95,0.00,,,0.13,meteohub,2013-02-24 22:55:00,
2013-02-24 18:00:00,30.0,28.8,29.93,ESE,105,2.0,3.0,95,0.00,,,0.13,meteohub,2013-02-24 23:00:00,
2013-02-24 18:05:00,30.0,28.6,29.94,East,89,1.0,4.0,94,0.00,,,0.13,meteohub,2013-02-24 23:05:00,
2013-02-24 18:10:00,30.0,28.6,29.94,WNW,285,1.0,4.0,94,0.00,,,0.13,meteohub,2013-02-24 23:10:00,
2013-02-24 18:15:00,29.8,28.4,29.94,WNW,288,0.0,4.0,94,0.00,,,0.13,meteohub,2013-02-24 23:15:00,
2013-02-24 18:20:00,29.8,28.4,29.94,NNW,340,0.0,5.0,94,0.00,,,0.13,meteohub,2013-02-24 23:20:00,
2013-02-24 18:25:00,29.8,28.6,29.95,North,355,1.0,5.0,95,0.00,,,0.13,meteohub,2013-02-24 23:25:00,
2013-02-24 18:30:00,29.7,28.4,29.95,SSE,148,0.0,5.0,95,0.00,,,0.13,meteohub,2013-02-24 23:30:00,
2013-02-24 18:35:00,29.7,28.4,29.95,NE,53,0.0,5.0,95,0.00,,,0.13,meteohub,2013-02-24 23:35:00,
2013-02-24 18:41:00,29.5,28.2,29.96,NE,50,0.0,5.0,95,0.00,,,0.13,meteohub,2013-02-24 23:41:00,
2013-02-24 18:46:00,29.5,28.2,29.96,NE,42,0.0,4.0,95,0.00,,,0.13,meteohub,2013-02-24 23:46:00,
2013-02-24 18:51:00,29.5,28.2,29.96,NE,36,1.0,4.0,95,0.00,,,0.13,meteohub,2013-02-24 23:51:00,
2013-02-24 18:56:00,29.5,28.2,29.96,NNE,17,0.0,4.0,95,0.00,,,0.13,meteohub,2013-02-24 23:56:00,
2013-02-24 19:01:00,29.3,28.0,29.96,ENE,60,1.0,3.0,95,0.00,,,0.13,meteohub,2013-02-25 00:01:00,
2013-02-24 19:06:00,29.3,28.0,29.97,North,5,0.0,3.0,95,0.00,,,0.00,meteohub,2013-02-25 00:06:00,
2013-02-24 19:11:00,29.3,28.0,29.97,North,0,0.0,3.0,95,0.00,,,0.00,meteohub,2013-02-25 00:11:00,
2013-02-24 19:16:00,29.1,27.9,29.97,East,81,0.0,5.0,95,0.00,,,0.00,meteohub,2013-02-25 00:16:00,
2013-02-24 19:21:00,29.1,27.9,29.98,NNE,26,0.0,5.0,95,0.00,,,0.00,meteohub,2013-02-25 00:21:00,
2013-02-24 19:26:00,29.1,27.9,29.98,NNW,342,0.0,5.0,95,0.00,,,0.00,meteohub,2013-02-25 00:26:00,
2013-02-24 19:31:00,29.1,27.9,29.98,NNW,342,0.0,3.0,95,0.00,,,0.00,meteohub,2013-02-25 00:31:00,
2013-02-24 19:36:00,29.1,27.9,29.98,NNW,333,0.0,2.0,95,0.00,,,0.00,meteohub,2013-02-25 00:36:00,
2013-02-24 19:41:00,29.1,27.9,29.99,North,355,1.0,2.0,95,0.00,,,0.00,meteohub,2013-02-25 00:41:00,
2013-02-24 19:46:00,29.1,27.9,29.99,East,86,0.0,3.0,95,0.00,,,0.00,meteohub,2013-02-25 00:46:00,
2013-02-24 19:51:00,28.9,27.7,29.99,East,86,0.0,3.0,95,0.00,,,0.00,meteohub,2013-02-25 00:51:00,
2013-02-24 19:56:00,28.9,27.7,29.99,NE,46,0.0,4.0,95,0.00,,,0.00,meteohub,2013-02-25 00:56:00,
2013-02-24 20:01:00,28.9,27.7,29.99,ESE,103,0.0,4.0,95,0.00,,,0.00,meteohub,2013-02-25 01:01:00,
2013-02-24 20:06:00,28.9,27.7,29.99,NE,50,0.0,4.0,95,0.00,,,0.00,meteohub,2013-02-25 01:06:00,
2013-02-24 20:11:00,28.9,27.7,30.00,NE,50,0.0,3.0,95,0.00,,,0.00,meteohub,2013-02-25 01:11:00,
2013-02-24 20:16:00,28.9,27.7,30.00,NE,50,0.0,3.0,95,0.00,,,0.00,meteohub,2013-02-25 01:16:00,
2013-02-24 20:21:00,28.9,27.7,30.00,ENE,64,0.0,3.0,95,0.00,,,0.00,meteohub,2013-02-25 01:21:00,
2013-02-24 20:26:00,28.8,27.5,30.01,ENE,64,0.0,2.0,95,0.00,,,0.00,meteohub,2013-02-25 01:26:00,
2013-02-24 20:31:00,28.8,27.5,30.01,SW,234,0.0,3.0,95,0.00,,,0.00,meteohub,2013-02-25 01:31:00,
2013-02-24 20:36:00,28.8,27.5,30.01,WSW,240,0.0,3.0,95,0.00,,,0.00,meteohub,2013-02-25 01:36:00,
2013-02-24 20:41:00,28.8,27.5,30.01,WSW,240,0.0,3.0,95,0.00,,,0.00,meteohub,2013-02-25 01:41:00,
2013-02-24 20:46:00,28.8,27.5,30.01,WSW,240,0.0,2.0,95,0.00,,,0.00,meteohub,2013-02-25 01:46:00,
2013-02-24 20:51:00,28.8,27.5,30.01,WSW,240,0.0,0.0,95,0.00,,,0.00,meteohub,2013-02-25 01:51:00,
2013-02-24 20:56:00,28.8,27.5,30.01,NNE,30,0.0,2.0,95,0.00,,,0.00,meteohub,2013-02-25 01:56:00,
2013-02-24 21:01:00,28.8,27.5,30.02,NNE,26,2.0,3.0,95,0.00,,,0.00,meteohub,2013-02-25 02:01:00,
2013-02-24 21:06:00,28.6,27.3,30.02,ESE,115,0.0,4.0,95,0.00,,,0.00,meteohub,2013-02-25 02:06:00,
2013-02-24 21:12:00,28.6,27.3,30.02,ESE,115,1.0,4.0,95,0.00,,,0.00,meteohub,2013-02-25 02:12:00,
2013-02-24 21:17:00,28.4,27.1,30.02,NE,50,0.0,4.0,95,0.00,,,0.00,meteohub,2013-02-25 02:17:00,
2013-02-24 21:22:00,28.4,27.1,30.02,NE,50,0.0,3.0,95,0.00,,,0.00,meteohub,2013-02-25 02:22:00,
2013-02-24 21:27:00,28.4,27.1,30.02,NE,50,0.0,3.0,95,0.00,,,0.00,meteohub,2013-02-25 02:27:00,
2013-02-24 21:32:00,28.2,27.0,30.02,NE,50,0.0,1.0,95,0.00,,,0.00,meteohub,2013-02-25 02:32:00,
2013-02-24 21:37:00,28.2,27.0,30.02,NE,44,0.0,1.0,95,0.00,,,0.00,meteohub,2013-02-25 02:37:00,
2013-02-24 21:42:00,28.2,27.0,30.02,NE,44,0.0,1.0,95,0.00,,,0.00,meteohub,2013-02-25 02:42:00,
2013-02-24 21:47:00,28.2,27.0,30.02,NE,44,0.0,1.0,95,0.00,,,0.00,meteohub,2013-02-25 02:47:00,
2013-02-24 21:57:00,28.2,27.0,30.03,NE,44,0.0,1.0,95,0.00,,,0.00,meteohub,2013-02-25 02:57:00,
2013-02-24 22:02:00,28.0,26.8,30.03,NE,44,0.0,1.0,95,0.00,,,0.00,meteohub,2013-02-25 03:02:00,
2013-02-24 22:07:00,28.0,26.8,30.03,NE,44,0.0,1.0,95,0.00,,,0.00,meteohub,2013-02-25 03:07:00,
2013-02-24 22:12:00,28.0,26.8,30.03,East,101,0.0,3.0,95,0.00,,,0.00,meteohub,2013-02-25 03:12:00,
2013-02-24 22:17:00,28.0,26.8,30.03,East,101,0.0,3.0,95,0.00,,,0.00,meteohub,2013-02-25 03:17:00,
2013-02-24 22:22:00,28.0,26.8,30.03,East,80,0.0,3.0,95,0.00,,,0.00,meteohub,2013-02-25 03:22:00,
2013-02-24 22:27:00,28.0,26.8,30.04,WNW,303,0.0,3.0,95,0.00,,,0.00,meteohub,2013-02-25 03:27:00,
2013-02-24 22:32:00,28.0,26.8,30.04,North,11,0.0,3.0,95,0.00,,,0.00,meteohub,2013-02-25 03:32:00,
2013-02-24 22:37:00,27.9,26.6,30.04,North,11,0.0,3.0,95,0.00,,,0.00,meteohub,2013-02-25 03:37:00,
2013-02-24 22:42:00,27.9,26.6,30.04,NNW,335,0.0,3.0,95,0.00,,,0.00,meteohub,2013-02-25 03:42:00,
2013-02-24 22:47:00,27.9,26.6,30.04,East,86,0.0,3.0,95,0.00,,,0.00,meteohub,2013-02-25 03:47:00,
2013-02-24 22:52:00,27.9,26.6,30.04,East,86,0.0,3.0,95,0.00,,,0.00,meteohub,2013-02-25 03:52:00,
2013-02-24 22:57:00,27.7,26.4,30.04,East,86,0.0,3.0,95,0.00,,,0.00,meteohub,2013-02-25 03:57:00,
2013-02-24 23:02:00,27.7,26.2,30.04,East,86,0.0,0.0,94,0.00,,,0.00,meteohub,2013-02-25 04:02:00,
2013-02-24 23:07:00,27.7,26.2,30.04,East,86,0.0,1.0,94,0.00,,,0.00,meteohub,2013-02-25 04:07:00,
2013-02-24 23:12:00,27.7,26.2,30.04,East,86,0.0,1.0,94,0.00,,,0.00,meteohub,2013-02-25 04:12:00,
2013-02-24 23:17:00,27.7,26.2,30.04,East,86,0.0,1.0,94,0.00,,,0.00,meteohub,2013-02-25 04:17:00,
2013-02-24 23:22:00,27.7,26.2,30.04,East,86,0.0,1.0,94,0.00,,,0.00,meteohub,2013-02-25 04:22:00,
2013-02-24 23:27:00,27.7,26.2,30.04,East,86,0.0,1.0,94,0.00,,,0.00,meteohub,2013-02-25 04:27:00,
2013-02-24 23:32:00,27.7,26.2,30.04,East,86,0.0,1.0,94,0.00,,,0.00,meteohub,2013-02-25 04:32:00,
2013-02-24 23:37:00,27.7,26.2,30.05,NNW,345,0.0,3.0,94,0.00,,,0.00,meteohub,2013-02-25 04:37:00,
2013-02-24 23:42:00,27.7,26.2,30.05,NNW,345,0.0,3.0,94,0.00,,,0.00,meteohub,2013-02-25 04:42:00,
2013-02-24 23:47:00,27.7,26.2,30.05,NNW,345,0.0,3.0,94,0.00,,,0.00,meteohub,2013-02-25 04:47:00,
2013-02-24 23:52:00,27.7,25.9,30.05,NW,307,0.0,1.0,93,0.00,,,0.00,meteohub,2013-02-25 04:52:00,
2013-02-24 23:57:00,27.7,25.9,30.05,NW,308,0.0,3.0,93,0.00,,,0.00,meteohub,2013-02-25 04:57:00,